createdAt,value
2019-02-20T00:00:26.013Z,80.80
2019-02-20T00:01:39.270Z,81.20
2019-02-20T00:03:11.942Z,81.70
2019-02-20T00:04:25.188Z,81.00
2019-02-20T00:05:38.428Z,81.60
2019-02-20T00:06:52.609Z,82.50
2019-02-20T00:08:05.842Z,82.30
2019-02-20T00:09:19.094Z,82.30
2019-02-20T00:10:32.379Z,82.70
2019-02-20T00:11:45.622Z,83.10
2019-02-20T00:12:58.887Z,83.80
2019-02-20T00:14:12.362Z,83.80
2019-02-20T00:15:26.320Z,83.80
2019-02-20T00:16:39.541Z,84.90
2019-02-20T00:17:52.770Z,84.00
2019-02-20T00:19:06.012Z,83.70
2019-02-20T00:20:19.234Z,85.20
2019-02-20T00:21:32.478Z,84.30
2019-02-20T00:22:45.945Z,85.30
2019-02-20T00:24:00.197Z,85.50
2019-02-20T00:25:13.443Z,86.70
2019-02-20T00:26:26.694Z,87.80
2019-02-20T00:27:39.918Z,87.60
2019-02-20T00:28:55.850Z,87.00
2019-02-20T00:30:10.243Z,86.60
2019-02-20T00:31:23.478Z,88.20
2019-02-20T00:32:36.721Z,88.40
2019-02-20T00:33:49.937Z,87.70
2019-02-20T00:35:03.259Z,86.70
2019-02-20T00:36:16.493Z,86.80
2019-02-20T00:37:29.734Z,87.00
2019-02-20T00:38:42.983Z,87.20
2019-02-20T00:39:56.213Z,88.20
2019-02-20T00:41:09.441Z,89.00
2019-02-20T00:42:24.097Z,89.20
2019-02-20T00:43:37.900Z,89.10
2019-02-20T00:44:55.774Z,89.70
2019-02-20T00:46:10.655Z,90.30
2019-02-20T00:47:25.542Z,90.60
2019-02-20T00:48:43.106Z,90.60
2019-02-20T00:49:56.347Z,90.60
2019-02-20T00:51:22.903Z,90.70
2019-02-20T00:52:37.783Z,90.60
2019-02-20T00:53:55.611Z,90.80
2019-02-20T00:55:09.522Z,90.90
2019-02-20T00:56:22.817Z,90.60
2019-02-20T00:57:36.052Z,91.00
2019-02-20T00:58:49.289Z,90.90
2019-02-20T01:00:02.792Z,90.80
2019-02-20T01:01:16.029Z,90.80
2019-02-20T01:02:29.265Z,91.00
2019-02-20T01:03:42.509Z,90.90
2019-02-20T01:04:55.759Z,90.90
2019-02-20T01:06:08.993Z,90.90
2019-02-20T01:07:22.234Z,91.10
2019-02-20T01:08:37.094Z,91.10
2019-02-20T01:09:50.322Z,91.00
2019-02-20T01:11:03.565Z,91.10
2019-02-20T01:12:16.797Z,90.90
2019-02-20T01:13:30.045Z,91.00
2019-02-20T01:14:43.328Z,91.20
2019-02-20T01:15:57.769Z,91.00
2019-02-20T01:17:11.011Z,90.90
2019-02-20T01:18:24.234Z,90.90
2019-02-20T01:19:37.469Z,90.30
2019-02-20T01:20:50.694Z,90.30
2019-02-20T01:22:03.939Z,90.20
2019-02-20T01:23:17.187Z,90.30
2019-02-20T01:24:30.421Z,90.20
2019-02-20T01:25:43.663Z,90.10
2019-02-20T01:26:56.906Z,90.20
2019-02-20T01:28:10.152Z,90.30
2019-02-20T01:29:23.392Z,90.20
2019-02-20T01:30:36.659Z,90.00
2019-02-20T01:31:50.050Z,89.90
2019-02-20T01:33:03.346Z,90.20
2019-02-20T01:34:16.606Z,90.50
2019-02-20T01:35:29.830Z,90.00
2019-02-20T01:36:43.066Z,90.50
2019-02-20T01:37:56.935Z,90.30
2019-02-20T01:39:10.888Z,90.20
2019-02-20T01:40:24.194Z,90.00
2019-02-20T01:41:37.417Z,89.90
2019-02-20T01:42:50.645Z,90.00
2019-02-20T01:44:03.879Z,90.00
2019-02-20T01:45:17.113Z,89.70
2019-02-20T01:46:30.356Z,89.80
2019-02-20T01:47:43.581Z,90.10
2019-02-20T01:48:56.828Z,89.50
2019-02-20T01:50:10.070Z,89.10
2019-02-20T01:51:23.305Z,88.70
2019-02-20T01:52:36.968Z,88.30
2019-02-20T01:53:50.193Z,88.60
2019-02-20T01:55:03.805Z,88.20
2019-02-20T01:56:17.055Z,87.80
2019-02-20T01:57:30.290Z,86.80
2019-02-20T01:58:43.534Z,87.00
2019-02-20T01:59:56.775Z,87.40
2019-02-20T02:01:10.002Z,87.10
2019-02-20T02:02:23.253Z,86.80
2019-02-20T02:03:36.506Z,86.90
2019-02-20T02:04:49.742Z,86.20
2019-02-20T02:06:02.978Z,86.10
2019-02-20T02:07:16.229Z,86.70
2019-02-20T02:08:29.454Z,87.20
2019-02-20T02:09:42.684Z,87.10
2019-02-20T02:10:55.926Z,87.50
2019-02-20T02:12:09.157Z,87.30
2019-02-20T02:13:22.418Z,86.50
2019-02-20T02:14:35.643Z,86.40
2019-02-20T02:15:48.874Z,86.60
2019-02-20T02:17:02.121Z,86.70
2019-02-20T02:18:15.356Z,86.50
2019-02-20T02:19:29.727Z,86.80
2019-02-20T02:20:42.977Z,87.10
2019-02-20T02:21:57.506Z,87.30
2019-02-20T02:23:19.418Z,86.80
2019-02-20T02:24:25.775Z,86.00
2019-02-20T02:25:39.010Z,86.30
2019-02-20T02:26:52.241Z,85.90
2019-02-20T02:28:05.484Z,85.60
2019-02-20T02:29:18.737Z,84.90
2019-02-20T02:30:32.061Z,84.90
2019-02-20T02:31:45.351Z,84.80
2019-02-20T02:32:59.507Z,85.60
2019-02-20T02:34:12.742Z,85.40
2019-02-20T02:35:25.979Z,86.50
2019-02-20T02:36:39.226Z,85.80
2019-02-20T02:37:53.674Z,85.60
2019-02-20T02:39:08.559Z,86.20
2019-02-20T02:40:21.801Z,85.70
2019-02-20T02:41:35.071Z,86.30
2019-02-20T02:42:48.295Z,85.60
2019-02-20T02:44:01.543Z,85.10
2019-02-20T02:45:16.038Z,85.20
2019-02-20T02:46:30.346Z,85.00
2019-02-20T02:47:43.583Z,85.00
2019-02-20T02:48:56.812Z,85.10
2019-02-20T02:50:10.049Z,85.80
2019-02-20T02:51:23.292Z,86.50
2019-02-20T02:52:36.529Z,85.20
2019-02-20T02:53:49.761Z,84.60
2019-02-20T02:55:03.006Z,85.30
2019-02-20T02:56:16.454Z,85.50
2019-02-20T02:57:29.694Z,86.60
2019-02-20T02:58:42.996Z,87.10
2019-02-20T02:59:56.270Z,87.60
2019-02-20T03:01:09.510Z,87.80
2019-02-20T03:02:22.755Z,87.90
2019-02-20T03:03:35.993Z,87.40
2019-02-20T03:04:49.297Z,87.60
2019-02-20T03:06:02.528Z,87.40
2019-02-20T03:07:15.759Z,87.90
2019-02-20T03:08:28.991Z,88.10
2019-02-20T03:09:42.258Z,87.70
2019-02-20T03:10:55.558Z,87.30
2019-02-20T03:12:09.971Z,87.80
2019-02-20T03:13:23.207Z,87.10
2019-02-20T03:14:36.437Z,87.40
2019-02-20T03:15:49.670Z,88.30
2019-02-20T03:17:02.898Z,88.50
2019-02-20T03:18:16.137Z,88.80
2019-02-20T03:19:29.377Z,87.90
2019-02-20T03:20:42.661Z,87.00
2019-02-20T03:21:55.927Z,86.50
2019-02-20T03:23:09.163Z,85.70
2019-02-20T03:24:22.386Z,85.70
2019-02-20T03:25:35.669Z,85.90
2019-02-20T03:26:48.935Z,86.00
2019-02-20T03:28:02.169Z,86.60
2019-02-20T03:29:15.395Z,86.00
2019-02-20T03:30:28.634Z,86.10
2019-02-20T03:31:41.962Z,86.10
2019-02-20T03:32:55.214Z,85.70
2019-02-20T03:34:09.082Z,85.00
2019-02-20T03:35:22.402Z,84.60
2019-02-20T03:36:35.633Z,84.20
2019-02-20T03:37:48.875Z,84.00
2019-02-20T03:39:02.828Z,83.90
2019-02-20T03:40:16.094Z,85.00
2019-02-20T03:41:29.373Z,85.80
2019-02-20T03:42:42.613Z,86.30
2019-02-20T03:43:55.840Z,87.10
2019-02-20T03:45:09.080Z,87.00
2019-02-20T03:46:22.327Z,86.70
2019-02-20T03:47:35.614Z,87.30
2019-02-20T03:48:48.867Z,87.60
2019-02-20T03:50:02.107Z,86.70
2019-02-20T03:51:15.338Z,86.90
2019-02-20T03:52:28.574Z,87.20
2019-02-20T03:53:51.131Z,87.20
2019-02-20T03:54:56.762Z,87.60
2019-02-20T03:56:10.002Z,87.80
2019-02-20T03:57:23.518Z,87.50
2019-02-20T03:58:36.744Z,88.00
2019-02-20T03:59:49.974Z,88.20
2019-02-20T04:01:03.451Z,88.40
2019-02-20T04:02:16.700Z,87.20
2019-02-20T04:03:29.923Z,87.80
2019-02-20T04:04:43.148Z,87.50
2019-02-20T04:05:56.387Z,87.60
2019-02-20T04:07:09.620Z,88.10
2019-02-20T04:08:22.930Z,88.70
2019-02-20T04:09:36.169Z,88.80
2019-02-20T04:10:49.409Z,88.30
2019-02-20T04:12:02.644Z,87.80
2019-02-20T04:13:15.883Z,87.40
2019-02-20T04:14:29.113Z,87.00
2019-02-20T04:15:42.341Z,86.40
2019-02-20T04:16:55.587Z,86.60
2019-02-20T04:18:10.683Z,87.30
2019-02-20T04:19:23.779Z,87.00
2019-02-20T04:20:37.021Z,87.80
2019-02-20T04:21:50.325Z,88.70
2019-02-20T04:23:03.563Z,87.40
2019-02-20T04:24:16.799Z,86.20
2019-02-20T04:25:30.029Z,85.90
2019-02-20T04:26:43.259Z,86.00
2019-02-20T04:27:56.503Z,86.10
2019-02-20T04:29:09.738Z,85.70
2019-02-20T04:30:22.990Z,85.40
2019-02-20T04:31:37.493Z,85.80
2019-02-20T04:32:50.722Z,85.40
2019-02-20T04:34:03.961Z,85.00
2019-02-20T04:35:17.194Z,84.60
2019-02-20T04:36:30.431Z,84.40
2019-02-20T04:37:43.664Z,84.40
2019-02-20T04:38:56.896Z,84.50
2019-02-20T04:40:10.122Z,84.50
2019-02-20T04:41:23.367Z,84.40
2019-02-20T04:42:36.598Z,84.50
2019-02-20T04:43:49.835Z,84.30
2019-02-20T04:45:03.073Z,83.80
2019-02-20T04:46:16.310Z,83.50
2019-02-20T04:47:31.205Z,83.90
2019-02-20T04:48:46.564Z,83.90
2019-02-20T04:49:59.824Z,84.90
2019-02-20T04:51:13.071Z,85.90
2019-02-20T04:52:26.370Z,86.50
2019-02-20T04:53:39.665Z,87.40
2019-02-20T04:54:52.956Z,86.50
2019-02-20T04:56:06.197Z,85.00
2019-02-20T04:57:19.494Z,85.10
2019-02-20T04:58:32.722Z,85.80
2019-02-20T04:59:46.026Z,85.60
2019-02-20T05:00:59.267Z,85.20
2019-02-20T05:02:12.511Z,85.30
2019-02-20T05:03:25.745Z,84.80
2019-02-20T05:04:39.042Z,84.40
2019-02-20T05:05:52.284Z,85.30
2019-02-20T05:07:05.518Z,85.30
2019-02-20T05:08:18.758Z,85.30
2019-02-20T05:09:31.973Z,86.70
2019-02-20T05:10:45.206Z,86.20
2019-02-20T05:11:58.443Z,86.00
2019-02-20T05:13:11.678Z,85.70
2019-02-20T05:14:24.926Z,85.70
2019-02-20T05:15:38.242Z,86.10
2019-02-20T05:16:52.810Z,86.40
2019-02-20T05:18:06.078Z,86.40
2019-02-20T05:19:19.333Z,86.50
2019-02-20T05:20:32.594Z,86.30
2019-02-20T05:21:45.887Z,86.10
2019-02-20T05:22:59.136Z,86.30
2019-02-20T05:24:12.380Z,86.20
2019-02-20T05:25:25.622Z,85.90
2019-02-20T05:26:38.846Z,86.10
2019-02-20T05:27:52.089Z,86.00
2019-02-20T05:29:05.329Z,85.80
2019-02-20T05:30:18.571Z,85.60
2019-02-20T05:31:31.810Z,85.80
2019-02-20T05:32:45.060Z,86.00
2019-02-20T05:33:58.283Z,85.70
2019-02-20T05:35:11.518Z,85.80
2019-02-20T05:36:24.757Z,84.70
2019-02-20T05:37:39.626Z,84.80
2019-02-20T05:38:53.007Z,85.70
2019-02-20T05:40:08.170Z,85.40
2019-02-20T05:41:21.409Z,85.70
2019-02-20T05:42:34.646Z,86.10
2019-02-20T05:43:47.908Z,85.80
2019-02-20T05:45:01.158Z,85.30
2019-02-20T05:46:14.378Z,85.60
2019-02-20T05:47:27.617Z,85.90
2019-02-20T05:48:40.853Z,86.00
2019-02-20T05:49:54.406Z,86.10
2019-02-20T05:51:09.787Z,86.30
2019-02-20T05:52:23.044Z,86.30
2019-02-20T05:53:36.300Z,85.90
2019-02-20T05:54:49.596Z,85.80
2019-02-20T05:56:02.834Z,85.90
2019-02-20T05:57:16.067Z,85.90
2019-02-20T05:58:29.317Z,85.70
2019-02-20T05:59:43.610Z,86.00
2019-02-20T06:00:56.841Z,85.90
2019-02-20T06:02:11.409Z,86.10
2019-02-20T06:03:24.892Z,87.10
2019-02-20T06:04:38.113Z,85.50
2019-02-20T06:05:51.357Z,85.20
2019-02-20T06:07:04.662Z,85.60
2019-02-20T06:08:17.911Z,85.50
2019-02-20T06:09:31.138Z,86.10
2019-02-20T06:10:44.390Z,86.60
2019-02-20T06:11:57.621Z,86.40
2019-02-20T06:13:12.414Z,86.10
2019-02-20T06:14:25.640Z,85.60
2019-02-20T06:15:40.147Z,85.90
2019-02-20T06:16:53.374Z,85.90
2019-02-20T06:18:09.178Z,85.90
2019-02-20T06:19:22.448Z,86.10
2019-02-20T06:20:35.684Z,86.30
2019-02-20T06:21:48.924Z,86.60
2019-02-20T06:23:02.170Z,85.70
2019-02-20T06:24:15.402Z,85.20
2019-02-20T06:25:28.640Z,84.70
2019-02-20T06:26:41.865Z,84.90
2019-02-20T06:27:55.126Z,84.50
2019-02-20T06:29:08.354Z,84.90
2019-02-20T06:30:21.591Z,84.90
2019-02-20T06:31:34.826Z,85.30
2019-02-20T06:32:48.057Z,85.50
2019-02-20T06:34:01.300Z,86.70
2019-02-20T06:35:14.523Z,87.00
2019-02-20T06:36:27.757Z,87.10
2019-02-20T06:37:40.998Z,87.40
2019-02-20T06:38:55.594Z,87.20
2019-02-20T06:40:09.459Z,86.90
2019-02-20T06:41:22.681Z,86.80
2019-02-20T06:42:35.901Z,87.50
2019-02-20T06:43:49.136Z,86.50
2019-02-20T06:45:02.602Z,86.10
2019-02-20T06:46:15.831Z,86.10
2019-02-20T06:47:29.059Z,86.20
2019-02-20T06:48:42.281Z,85.90
2019-02-20T06:49:55.535Z,85.90
2019-02-20T06:51:08.779Z,86.20
2019-02-20T06:52:22.000Z,86.10
2019-02-20T06:53:35.217Z,86.30
2019-02-20T06:54:53.861Z,86.30
2019-02-20T06:56:03.410Z,86.30
2019-02-20T06:57:16.634Z,86.10
2019-02-20T06:58:29.872Z,86.10
2019-02-20T06:59:43.093Z,86.00
2019-02-20T07:00:56.337Z,85.80
2019-02-20T07:02:09.575Z,85.90
2019-02-20T07:03:22.805Z,85.90
2019-02-20T07:04:36.038Z,85.80
2019-02-20T07:05:50.505Z,86.30
2019-02-20T07:07:21.584Z,85.60
2019-02-20T07:09:09.506Z,86.00
2019-02-20T07:10:47.084Z,86.20
2019-02-20T07:12:09.428Z,86.10
2019-02-20T07:13:25.926Z,86.00
2019-02-20T07:14:57.082Z,85.80
2019-02-20T07:16:35.681Z,85.30
2019-02-20T07:18:06.834Z,85.10
2019-02-20T07:19:37.938Z,84.70
2019-02-20T07:21:00.242Z,84.60
2019-02-20T07:22:40.681Z,84.60
2019-02-20T07:24:08.361Z,84.50
2019-02-20T07:25:24.842Z,84.60
2019-02-20T07:26:45.313Z,84.80
2019-02-20T07:28:05.857Z,85.00
2019-02-20T07:29:47.541Z,84.60
2019-02-20T07:31:00.805Z,84.20
2019-02-20T07:32:15.519Z,84.00
2019-02-20T07:33:28.746Z,83.80
2019-02-20T07:34:41.980Z,84.20
2019-02-20T07:35:56.133Z,84.20
2019-02-20T07:37:09.430Z,83.90
2019-02-20T07:38:22.676Z,83.40
2019-02-20T07:39:35.912Z,83.40
2019-02-20T07:40:49.135Z,83.50
2019-02-20T07:42:04.002Z,83.50
2019-02-20T07:43:17.305Z,83.40
2019-02-20T07:44:30.529Z,83.80
2019-02-20T07:45:43.759Z,83.60
2019-02-20T07:46:59.932Z,83.00
2019-02-20T07:48:13.163Z,83.30
2019-02-20T07:49:26.389Z,83.20
2019-02-20T07:50:39.636Z,83.50
2019-02-20T07:51:52.862Z,83.20
2019-02-20T07:53:06.109Z,82.20
2019-02-20T07:54:19.350Z,82.00
2019-02-20T07:55:32.570Z,81.90
2019-02-20T07:56:45.798Z,81.70
2019-02-20T07:57:59.022Z,81.60
2019-02-20T07:59:12.261Z,82.10
2019-02-20T08:00:25.492Z,80.80
2019-02-20T08:01:39.188Z,80.80
2019-02-20T08:02:52.420Z,80.20
2019-02-20T08:04:05.654Z,80.10
2019-02-20T08:05:19.361Z,80.10
2019-02-20T08:06:32.581Z,78.70
2019-02-20T08:07:45.796Z,78.20
2019-02-20T08:08:59.027Z,78.70
2019-02-20T08:10:12.530Z,78.30
2019-02-20T08:11:25.756Z,78.20
2019-02-20T08:12:38.990Z,77.90
2019-02-20T08:13:52.233Z,78.30
2019-02-20T08:15:07.909Z,78.40
2019-02-20T08:16:22.686Z,78.30
2019-02-20T08:17:36.381Z,78.30
2019-02-20T08:18:49.611Z,78.00
2019-02-20T08:20:02.914Z,78.20
2019-02-20T08:21:16.160Z,78.10
2019-02-20T08:22:29.381Z,77.80
2019-02-20T08:23:42.611Z,77.90
2019-02-20T08:24:55.832Z,76.50
2019-02-20T08:26:09.067Z,75.70
2019-02-20T08:27:22.301Z,75.60
2019-02-20T08:28:35.532Z,75.30
2019-02-20T08:29:48.761Z,75.30
2019-02-20T08:31:02.013Z,75.20
2019-02-20T08:32:15.225Z,74.80
2019-02-20T08:33:28.453Z,74.00
2019-02-20T08:34:41.686Z,73.30
2019-02-20T08:35:54.898Z,72.80
2019-02-20T08:37:08.137Z,72.70
2019-02-20T08:38:22.726Z,71.80
2019-02-20T08:39:35.945Z,72.20
2019-02-20T08:40:49.649Z,72.40
2019-02-20T08:42:02.915Z,72.40
2019-02-20T08:43:16.253Z,72.20
2019-02-20T08:44:29.495Z,71.70
2019-02-20T08:45:42.961Z,72.10
2019-02-20T08:46:56.199Z,72.10
2019-02-20T08:48:09.427Z,72.70
2019-02-20T08:49:22.884Z,73.30
2019-02-20T08:50:36.105Z,73.30
2019-02-20T08:51:49.337Z,72.30
2019-02-20T08:53:02.586Z,71.80
2019-02-20T08:54:16.525Z,71.40
2019-02-20T08:55:32.406Z,71.20
2019-02-20T08:56:45.173Z,71.60
2019-02-20T08:58:00.031Z,71.00
2019-02-20T08:59:13.262Z,71.00
2019-02-20T09:00:26.485Z,71.30
2019-02-20T09:01:39.717Z,71.00
2019-02-20T09:02:53.978Z,70.20
2019-02-20T09:04:07.230Z,70.50
2019-02-20T09:05:20.544Z,69.50
2019-02-20T09:06:35.405Z,69.30
2019-02-20T09:07:48.628Z,69.30
2019-02-20T09:09:04.249Z,69.20
2019-02-20T09:10:20.655Z,69.20
2019-02-20T09:11:33.884Z,68.10
2019-02-20T09:12:47.109Z,68.60
2019-02-20T09:14:00.362Z,68.60
2019-02-20T09:15:13.869Z,67.90
2019-02-20T09:16:27.102Z,67.40
2019-02-20T09:17:40.334Z,66.80
2019-02-20T09:18:53.552Z,65.90
2019-02-20T09:20:09.231Z,65.00
2019-02-20T09:21:22.472Z,64.60
2019-02-20T09:22:36.169Z,64.00
2019-02-20T09:23:51.054Z,64.30
2019-02-20T09:25:06.320Z,62.70
2019-02-20T09:26:19.551Z,62.80
2019-02-20T09:27:32.952Z,63.20
2019-02-20T09:28:46.203Z,62.80
2019-02-20T09:29:59.905Z,64.20
2019-02-20T09:31:14.774Z,64.70
2019-02-20T09:32:27.995Z,65.90
2019-02-20T09:33:41.225Z,66.80
2019-02-20T09:34:54.467Z,66.90
2019-02-20T09:36:07.700Z,65.40
2019-02-20T09:37:20.934Z,65.10
2019-02-20T09:38:34.161Z,64.80
2019-02-20T09:39:47.414Z,63.00
2019-02-20T09:41:00.655Z,62.50
2019-02-20T09:42:13.892Z,62.40
2019-02-20T09:43:27.126Z,61.50
2019-02-20T09:44:43.098Z,61.40
2019-02-20T09:45:56.338Z,62.80
2019-02-20T09:47:09.565Z,63.50
2019-02-20T09:48:22.802Z,63.90
2019-02-20T09:49:36.029Z,63.00
2019-02-20T09:50:49.270Z,62.40
2019-02-20T09:52:02.502Z,61.80
2019-02-20T09:53:16.472Z,61.60
2019-02-20T09:54:31.323Z,60.40
2019-02-20T09:55:51.130Z,59.10
2019-02-20T09:56:59.513Z,60.00
2019-02-20T09:58:12.760Z,60.00
2019-02-20T09:59:25.990Z,60.50
2019-02-20T10:00:39.461Z,61.90
2019-02-20T10:01:52.712Z,61.60
2019-02-20T10:03:05.941Z,62.30
2019-02-20T10:04:19.175Z,63.50
2019-02-20T10:05:32.422Z,64.00
2019-02-20T10:06:45.645Z,64.30
2019-02-20T10:07:58.904Z,63.80
2019-02-20T10:09:13.297Z,64.50
2019-02-20T10:10:26.530Z,63.00
2019-02-20T10:11:39.758Z,62.50
2019-02-20T10:12:52.997Z,63.50
2019-02-20T10:14:06.242Z,64.20
2019-02-20T10:15:20.022Z,64.30
2019-02-20T10:16:33.242Z,63.60
2019-02-20T10:17:46.481Z,63.00
2019-02-20T10:18:59.725Z,61.90
2019-02-20T10:20:12.966Z,62.50
2019-02-20T10:21:26.205Z,62.80
2019-02-20T10:22:39.434Z,63.40
2019-02-20T10:23:53.770Z,63.00
2019-02-20T10:25:13.387Z,62.80
2019-02-20T10:26:27.137Z,61.80
2019-02-20T10:27:40.378Z,59.90
2019-02-20T10:28:54.131Z,60.50
2019-02-20T10:30:13.014Z,60.00
2019-02-20T10:31:27.310Z,59.80
2019-02-20T10:32:40.545Z,60.10
2019-02-20T10:33:53.785Z,60.90
2019-02-20T10:35:10.663Z,61.10
2019-02-20T10:36:23.957Z,61.00
2019-02-20T10:37:37.194Z,61.10
2019-02-20T10:38:50.422Z,61.40
2019-02-20T10:40:04.103Z,60.90
2019-02-20T10:41:17.331Z,59.80
2019-02-20T10:42:31.554Z,59.20
2019-02-20T10:43:44.798Z,58.90
2019-02-20T10:44:59.050Z,58.30
2019-02-20T10:46:12.278Z,57.60
2019-02-20T10:47:25.518Z,57.10
2019-02-20T10:48:38.741Z,56.80
2019-02-20T10:49:53.250Z,55.90
2019-02-20T10:51:08.111Z,56.20
2019-02-20T10:52:21.351Z,55.50
2019-02-20T10:53:35.814Z,55.60
2019-02-20T10:54:57.410Z,56.10
2019-02-20T10:56:09.390Z,55.50
2019-02-20T10:57:20.584Z,55.30
2019-02-20T10:58:33.835Z,54.70
2019-02-20T10:59:47.062Z,54.30
2019-02-20T11:01:00.300Z,54.00
2019-02-20T11:02:13.526Z,53.40
2019-02-20T11:03:26.768Z,52.70
2019-02-20T11:04:40.006Z,52.10
2019-02-20T11:05:53.229Z,51.40
2019-02-20T11:07:06.465Z,50.70
2019-02-20T11:08:20.781Z,49.50
2019-02-20T11:09:34.001Z,49.70
2019-02-20T11:10:48.485Z,49.10
2019-02-20T11:12:01.725Z,48.40
2019-02-20T11:13:14.954Z,48.10
2019-02-20T11:14:28.205Z,47.80
2019-02-20T11:15:42.510Z,47.70
2019-02-20T11:16:55.746Z,47.50
2019-02-20T11:18:08.982Z,47.20
2019-02-20T11:19:22.225Z,47.20
2019-02-20T11:20:35.462Z,47.40
2019-02-20T11:21:48.693Z,47.70
2019-02-20T11:23:01.930Z,47.50
2019-02-20T11:24:15.184Z,48.80
2019-02-20T11:25:28.659Z,50.10
2019-02-20T11:26:52.217Z,50.80
2019-02-20T11:27:56.867Z,51.60
2019-02-20T11:29:10.172Z,52.00
2019-02-20T11:30:24.649Z,53.60
2019-02-20T11:31:37.885Z,54.20
2019-02-20T11:32:51.125Z,55.10
2019-02-20T11:34:04.354Z,56.00
2019-02-20T11:35:17.605Z,57.10
2019-02-20T11:36:30.831Z,57.70
2019-02-20T11:37:44.082Z,58.70
2019-02-20T11:38:58.279Z,59.90
2019-02-20T11:40:11.776Z,60.70
2019-02-20T11:41:25.006Z,60.40
2019-02-20T11:42:39.861Z,59.50
2019-02-20T11:43:53.090Z,59.80
2019-02-20T11:45:17.705Z,60.00
2019-02-20T11:46:30.930Z,59.90
2019-02-20T11:47:44.163Z,60.60
2019-02-20T11:48:57.395Z,61.40
2019-02-20T11:50:11.214Z,62.20
2019-02-20T11:51:25.463Z,62.50
2019-02-20T11:52:38.791Z,62.50
2019-02-20T11:53:54.281Z,62.60
2019-02-20T11:55:10.024Z,62.10
2019-02-20T11:56:26.608Z,62.40
2019-02-20T11:57:38.296Z,61.90
2019-02-20T11:58:51.542Z,60.90
2019-02-20T12:00:08.029Z,59.90
2019-02-20T12:01:21.314Z,58.60
2019-02-20T12:02:37.486Z,58.30
2019-02-20T12:03:50.197Z,57.70
2019-02-20T12:05:05.067Z,56.90
2019-02-20T12:06:18.293Z,56.90
2019-02-20T12:07:31.606Z,57.00
2019-02-20T12:08:44.838Z,56.90
2019-02-20T12:09:58.066Z,56.90
2019-02-20T12:11:11.288Z,58.30
2019-02-20T12:12:24.530Z,57.90
2019-02-20T12:13:37.761Z,57.60
2019-02-20T12:14:50.990Z,57.10
2019-02-20T12:16:04.221Z,56.90
2019-02-20T12:17:17.463Z,56.70
2019-02-20T12:18:30.698Z,56.60
2019-02-20T12:19:43.924Z,56.50
2019-02-20T12:20:57.154Z,56.10
2019-02-20T12:22:10.398Z,56.00
2019-02-20T12:23:23.641Z,56.00
2019-02-20T12:24:36.873Z,56.30
2019-02-20T12:25:50.118Z,56.30
2019-02-20T12:27:03.358Z,56.60
2019-02-20T12:28:16.593Z,56.70
2019-02-20T12:29:30.174Z,57.00
2019-02-20T12:30:43.397Z,57.20
2019-02-20T12:31:58.261Z,56.60
2019-02-20T12:33:11.491Z,56.90
2019-02-20T12:34:24.745Z,56.90
2019-02-20T12:35:37.977Z,56.60
2019-02-20T12:36:51.218Z,56.30
2019-02-20T12:38:04.446Z,56.90
2019-02-20T12:39:17.746Z,56.10
2019-02-20T12:40:31.687Z,55.80
2019-02-20T12:41:44.909Z,56.00
2019-02-20T12:42:58.157Z,55.80
2019-02-20T12:44:11.399Z,56.10
2019-02-20T12:45:26.280Z,56.10
2019-02-20T12:46:39.506Z,55.90
2019-02-20T12:47:54.573Z,55.90
2019-02-20T12:49:07.804Z,56.00
2019-02-20T12:50:22.679Z,56.10
2019-02-20T12:51:35.914Z,56.10
2019-02-20T12:52:50.378Z,56.00
2019-02-20T12:54:03.611Z,56.10
2019-02-20T12:55:16.850Z,56.20
2019-02-20T12:56:30.311Z,56.00
2019-02-20T12:57:43.545Z,56.10
2019-02-20T12:58:57.482Z,55.40
2019-02-20T13:00:12.634Z,55.30
2019-02-20T13:01:25.865Z,54.50
2019-02-20T13:02:39.098Z,53.40
2019-02-20T13:03:52.333Z,52.40
2019-02-20T13:05:06.517Z,51.60
2019-02-20T13:06:19.756Z,50.40
2019-02-20T13:07:33.241Z,49.20
2019-02-20T13:08:46.514Z,47.90
2019-02-20T13:09:59.734Z,47.20
2019-02-20T13:11:14.505Z,47.20
2019-02-20T13:12:30.511Z,46.50
2019-02-20T13:13:44.775Z,45.80
2019-02-20T13:14:58.469Z,44.10
2019-02-20T13:16:11.726Z,43.10
2019-02-20T13:17:24.974Z,42.50
2019-02-20T13:18:38.213Z,42.20
2019-02-20T13:19:51.450Z,41.40
2019-02-20T13:21:04.689Z,41.80
2019-02-20T13:22:19.566Z,42.10
2019-02-20T13:23:32.793Z,42.20
2019-02-20T13:24:46.038Z,42.30
2019-02-20T13:25:59.306Z,42.40
2019-02-20T13:27:12.544Z,42.20
2019-02-20T13:28:25.777Z,42.00
2019-02-20T13:29:39.108Z,42.00
2019-02-20T13:30:52.333Z,41.50
2019-02-20T13:32:05.573Z,41.10
2019-02-20T13:33:19.694Z,40.40
2019-02-20T13:34:32.925Z,40.40
2019-02-20T13:35:46.165Z,40.40
2019-02-20T13:37:01.037Z,39.90
2019-02-20T13:38:16.289Z,39.80
2019-02-20T13:39:29.445Z,40.70
2019-02-20T13:40:42.682Z,40.50
2019-02-20T13:41:55.925Z,41.50
2019-02-20T13:43:10.578Z,41.20
2019-02-20T13:44:23.810Z,40.40
2019-02-20T13:45:37.426Z,41.20
2019-02-20T13:46:52.075Z,41.60
2019-02-20T13:48:06.961Z,41.70
2019-02-20T13:49:20.253Z,41.90
2019-02-20T13:50:33.490Z,42.40
2019-02-20T13:51:46.717Z,40.90
2019-02-20T13:53:00.038Z,40.10
2019-02-20T13:54:13.282Z,40.80
2019-02-20T13:55:34.256Z,41.00
2019-02-20T13:56:41.470Z,40.60
2019-02-20T13:57:56.533Z,40.00
2019-02-20T13:59:09.794Z,40.50
2019-02-20T14:00:23.157Z,40.50
2019-02-20T14:01:37.478Z,40.10
2019-02-20T14:02:50.713Z,39.60
2019-02-20T14:04:03.958Z,38.20
2019-02-20T14:05:19.256Z,37.60
2019-02-20T14:06:32.958Z,37.00
2019-02-20T14:07:46.197Z,36.10
2019-02-20T14:08:59.441Z,37.20
2019-02-20T14:10:14.827Z,38.20
2019-02-20T14:11:28.054Z,37.10
2019-02-20T14:12:42.524Z,36.10
2019-02-20T14:13:57.374Z,36.20
2019-02-20T14:15:11.772Z,37.00
2019-02-20T14:16:26.266Z,38.80
2019-02-20T14:17:39.569Z,40.20
2019-02-20T14:18:53.281Z,40.90
2019-02-20T14:20:10.098Z,40.80
2019-02-20T14:21:23.705Z,40.60
2019-02-20T14:22:37.107Z,40.80
2019-02-20T14:23:52.646Z,40.90
2019-02-20T14:25:07.813Z,41.30
2019-02-20T14:26:21.045Z,39.80
2019-02-20T14:27:34.989Z,39.60
2019-02-20T14:28:48.295Z,39.70
2019-02-20T14:30:01.530Z,38.40
2019-02-20T14:31:16.578Z,38.90
2019-02-20T14:32:29.821Z,40.30
2019-02-20T14:33:44.034Z,40.90
2019-02-20T14:34:57.329Z,42.40
2019-02-20T14:36:12.225Z,42.20
2019-02-20T14:37:25.446Z,42.50
2019-02-20T14:38:40.685Z,42.60
2019-02-20T14:39:54.098Z,42.80
2019-02-20T14:41:07.357Z,42.00
2019-02-20T14:42:20.608Z,41.10
2019-02-20T14:43:33.845Z,40.00
2019-02-20T14:44:47.080Z,39.70
2019-02-20T14:46:01.605Z,38.70
2019-02-20T14:47:14.847Z,38.10
2019-02-20T14:48:28.086Z,37.60
2019-02-20T14:49:41.333Z,37.30
2019-02-20T14:50:54.557Z,37.10
2019-02-20T14:52:07.799Z,37.00
2019-02-20T14:53:22.063Z,37.10
2019-02-20T14:54:35.370Z,37.20
2019-02-20T14:55:48.609Z,37.30
2019-02-20T14:57:01.853Z,37.70
2019-02-20T14:58:15.930Z,37.90
2019-02-20T14:59:29.441Z,38.70
2019-02-20T15:00:44.546Z,38.90
2019-02-20T15:01:59.429Z,39.70
2019-02-20T15:03:12.662Z,40.50
2019-02-20T15:04:25.900Z,40.60
2019-02-20T15:05:39.215Z,40.90
2019-02-20T15:06:52.578Z,41.20
2019-02-20T15:08:05.824Z,40.80
2019-02-20T15:09:19.138Z,40.80
2019-02-20T15:10:32.369Z,40.20
2019-02-20T15:11:45.610Z,39.50
2019-02-20T15:12:58.937Z,38.70
2019-02-20T15:14:12.170Z,37.70
2019-02-20T15:15:25.402Z,37.20
2019-02-20T15:16:39.662Z,37.40
2019-02-20T15:17:53.174Z,37.80
2019-02-20T15:19:07.310Z,38.30
2019-02-20T15:20:20.541Z,39.00
2019-02-20T15:21:33.773Z,39.30
2019-02-20T15:22:47.010Z,40.00
2019-02-20T15:24:00.337Z,40.40
2019-02-20T15:25:13.635Z,41.40
2019-02-20T15:26:28.076Z,42.30
2019-02-20T15:27:41.277Z,42.90
2019-02-20T15:28:54.844Z,43.70
2019-02-20T15:30:15.864Z,44.10
2019-02-20T15:31:33.742Z,44.70
2019-02-20T15:32:44.049Z,44.90
2019-02-20T15:33:57.657Z,45.50
2019-02-20T15:35:11.178Z,45.90
2019-02-20T15:36:24.415Z,46.30
2019-02-20T15:37:37.639Z,46.70
2019-02-20T15:38:50.953Z,47.00
2019-02-20T15:40:07.103Z,47.20
2019-02-20T15:41:20.336Z,47.40
2019-02-20T15:42:33.575Z,47.20
2019-02-20T15:43:46.805Z,46.90
2019-02-20T15:45:00.043Z,47.70
2019-02-20T15:46:13.275Z,47.30
2019-02-20T15:47:27.777Z,47.40
2019-02-20T15:48:41.005Z,47.40
2019-02-20T15:49:54.239Z,47.50
2019-02-20T15:51:07.474Z,47.40
2019-02-20T15:52:20.706Z,47.60